createdAt,value
2023-11-03T04:44:18.068Z,11.59
2023-11-03T04:47:22.233Z,11.59
2023-11-03T04:50:25.224Z,11.02
2023-11-03T04:53:28.234Z,10.96
2023-11-03T04:56:31.191Z,10.95
2023-11-03T04:59:34.622Z,10.96
2023-11-03T05:02:37.625Z,10.99
2023-11-03T05:05:40.838Z,11.05
2023-11-03T05:08:43.878Z,11.15
2023-11-03T05:11:46.957Z,11.25
2023-11-03T05:14:49.533Z,11.34
2023-11-03T05:17:52.476Z,11.43
2023-11-03T05:20:55.464Z,11.51
2023-11-03T05:23:58.538Z,11.59
2023-11-03T05:27:01.176Z,11.68
2023-11-03T05:30:05.404Z,11.79
2023-11-03T05:33:08.089Z,11.91
2023-11-03T05:36:12.463Z,11.95
2023-11-03T05:39:15.213Z,11.96
2023-11-03T05:42:18.538Z,11.99
2023-11-03T05:45:21.268Z,12.07
2023-11-03T05:48:24.414Z,12.04
2023-11-03T05:51:27.320Z,12.09
2023-11-03T05:54:32.872Z,12.08
2023-11-03T05:57:35.555Z,12.12
2023-11-03T06:00:38.365Z,12.14
2023-11-03T06:03:41.437Z,12.16
2023-11-03T06:06:44.521Z,12.14
2023-11-03T06:09:47.843Z,12.24
2023-11-03T06:12:50.693Z,12.21
2023-11-03T06:15:53.940Z,12.21
2023-11-03T06:18:57.650Z,12.24
2023-11-03T06:22:00.958Z,12.28
2023-11-03T06:25:05.939Z,12.31
2023-11-03T06:28:09.115Z,12.43
2023-11-03T06:31:12.265Z,12.44
2023-11-03T06:34:15.450Z,12.42
2023-11-03T06:37:18.163Z,12.45
2023-11-03T06:40:21.372Z,12.49
2023-11-03T06:43:24.358Z,12.53
2023-11-03T06:46:27.325Z,12.57
2023-11-03T06:49:29.991Z,12.57
2023-11-03T06:52:33.554Z,12.60
2023-11-03T06:55:36.522Z,12.65
2023-11-03T06:58:39.570Z,12.66
2023-11-03T07:01:42.278Z,12.66
2023-11-03T07:04:46.541Z,12.65
2023-11-03T07:07:48.960Z,12.62
2023-11-03T07:10:52.060Z,12.53
2023-11-03T07:13:54.899Z,12.38
2023-11-03T07:16:57.865Z,12.13
2023-11-03T07:20:00.889Z,12.00
2023-11-03T07:23:04.024Z,11.91
2023-11-03T07:26:07.112Z,11.80
2023-11-03T07:29:10.780Z,11.78
2023-11-03T07:32:13.373Z,11.79
2023-11-03T07:35:17.107Z,11.81
2023-11-03T07:38:23.019Z,11.78
2023-11-03T07:41:26.744Z,11.75
2023-11-03T07:44:29.495Z,11.68
2023-11-03T07:47:34.133Z,11.69
2023-11-03T07:50:37.168Z,11.72
2023-11-03T07:53:40.788Z,11.73
2023-11-03T07:56:44.384Z,11.59
2023-11-03T07:59:48.032Z,11.65
2023-11-03T08:02:53.102Z,11.82
2023-11-03T08:05:57.994Z,12.00
2023-11-03T08:09:01.037Z,12.01
2023-11-03T08:12:04.215Z,12.01
2023-11-03T08:15:14.910Z,11.97
2023-11-03T08:18:19.343Z,11.90
2023-11-03T08:21:25.664Z,11.87
2023-11-03T08:24:28.978Z,11.86
2023-11-03T08:27:31.712Z,11.90
2023-11-03T08:30:34.509Z,11.98
2023-11-03T08:33:37.269Z,12.01
2023-11-03T08:36:40.532Z,12.06
2023-11-03T08:39:43.375Z,12.11
2023-11-03T08:42:46.737Z,12.09
2023-11-03T08:45:50.831Z,11.95
2023-11-03T08:48:56.443Z,11.95
2023-11-03T08:51:59.428Z,11.96
2023-11-03T08:55:07.844Z,11.95
2023-11-03T08:58:18.343Z,11.99
2023-11-03T09:01:27.460Z,12.00
2023-11-03T09:04:30.519Z,12.00
2023-11-03T09:07:34.528Z,12.01
2023-11-03T09:10:37.573Z,12.03
2023-11-03T09:14:03.370Z,12.09
2023-11-03T09:17:07.582Z,12.13
2023-11-03T09:20:11.469Z,12.14
2023-11-03T09:23:14.334Z,12.13
2023-11-03T09:26:17.418Z,12.10
2023-11-03T09:29:21.200Z,12.12
2023-11-03T09:32:24.186Z,11.99
2023-11-03T09:35:26.958Z,11.90
2023-11-03T10:36:09.618Z,12.43
2023-11-03T10:39:12.933Z,12.36
2023-11-03T10:42:19.032Z,12.38
2023-11-03T10:45:25.367Z,12.35
2023-11-03T10:48:52.080Z,12.27
2023-11-03T10:52:01.128Z,12.27
2023-11-03T10:55:14.035Z,12.27
2023-11-03T10:58:18.826Z,12.22
2023-11-03T11:01:33.616Z,12.26
2023-11-03T11:04:58.181Z,12.32
2023-11-03T11:08:05.271Z,12.30
2023-11-03T11:11:11.430Z,12.36
2023-11-03T11:14:25.449Z,12.35
2023-11-03T11:17:30.902Z,12.35
2023-11-03T11:20:38.601Z,12.29
2023-11-03T11:23:45.381Z,12.27
2023-11-03T11:26:51.127Z,12.26
2023-11-03T11:30:18.986Z,12.29
2023-11-03T11:33:29.691Z,12.26
2023-11-03T11:36:34.610Z,12.30
2023-11-03T11:39:37.277Z,12.48
2023-11-03T11:42:44.506Z,12.61
2023-11-03T11:45:48.399Z,12.62
2023-11-03T11:48:52.346Z,12.61
2023-11-03T11:51:57.728Z,12.55
2023-11-03T11:55:03.103Z,12.54
2023-11-03T11:58:09.100Z,12.49
2023-11-03T12:01:12.206Z,12.57
2023-11-03T12:04:16.131Z,12.59
2023-11-03T12:07:23.559Z,12.55
2023-11-03T12:10:26.829Z,12.47
2023-11-03T12:13:29.691Z,12.43
2023-11-03T12:16:32.902Z,12.37
2023-11-03T12:19:36.525Z,12.37
2023-11-03T12:22:39.937Z,12.42
2023-11-03T12:25:42.667Z,12.40
2023-11-03T12:28:45.975Z,12.45
2023-11-03T12:31:49.784Z,12.58
2023-11-03T12:34:56.239Z,12.72
2023-11-03T12:37:59.667Z,13.16
2023-11-03T12:41:16.257Z,13.55
2023-11-03T12:44:18.914Z,13.65
2023-11-03T12:47:40.805Z,13.51
2023-11-03T12:50:55.412Z,13.42
2023-11-03T12:53:58.413Z,13.31
2023-11-03T12:57:01.108Z,13.19
2023-11-03T13:00:08.941Z,13.01
2023-11-03T13:03:14.663Z,12.78
2023-11-03T13:06:18.065Z,12.66
2023-11-03T13:09:25.485Z,12.60
2023-11-03T13:12:28.819Z,12.66
2023-11-03T13:15:32.137Z,12.77
2023-11-03T13:18:35.395Z,12.87
2023-11-03T13:21:38.585Z,12.93
2023-11-03T13:24:45.920Z,12.96
2023-11-03T13:27:48.812Z,12.90
2023-11-03T13:30:51.708Z,12.81
2023-11-03T13:33:54.411Z,12.68
2023-11-03T13:36:57.573Z,12.66
2023-11-03T13:40:01.083Z,12.64
2023-11-03T13:43:05.319Z,12.70
2023-11-03T13:46:10.759Z,12.79
2023-11-03T13:49:24.426Z,12.76
2023-11-03T13:52:36.289Z,12.59
2023-11-03T13:55:39.336Z,12.63
2023-11-03T13:58:42.282Z,12.63
2023-11-03T14:01:45.712Z,12.63
2023-11-03T14:04:48.741Z,12.62
2023-11-03T14:07:52.128Z,12.54
2023-11-03T14:10:55.167Z,12.48
2023-11-03T14:13:57.912Z,12.32
2023-11-03T14:17:03.826Z,12.15
2023-11-03T14:20:08.235Z,12.11
2023-11-03T14:23:11.163Z,12.12
2023-11-03T14:26:13.707Z,13.15
2023-11-03T14:29:17.384Z,13.86
2023-11-03T14:32:20.098Z,13.83
2023-11-03T14:35:24.280Z,13.64
2023-11-03T14:38:28.342Z,13.67
2023-11-03T14:41:31.757Z,13.34
2023-11-03T14:44:37.617Z,13.00
2023-11-03T14:47:40.832Z,12.71
2023-11-03T14:50:46.096Z,12.59
2023-11-03T14:53:49.806Z,12.53
2023-11-03T14:56:53.430Z,12.52
2023-11-03T14:59:56.764Z,12.43
2023-11-03T15:03:01.611Z,12.21
2023-11-03T15:06:06.121Z,12.00
2023-11-03T15:09:09.157Z,11.80
2023-11-03T15:12:13.102Z,11.77
2023-11-03T15:15:17.142Z,11.72
2023-11-03T15:18:20.901Z,11.66
2023-11-03T15:21:24.151Z,11.47
2023-11-03T15:24:27.852Z,11.39
2023-11-03T15:27:30.358Z,11.26
2023-11-03T15:30:33.235Z,11.27
2023-11-03T15:33:37.377Z,11.20
2023-11-03T15:36:40.454Z,11.09
2023-11-03T15:39:46.430Z,10.95
2023-11-03T15:42:49.915Z,10.90
2023-11-03T15:45:54.418Z,10.91
2023-11-03T15:48:58.395Z,10.75
2023-11-03T15:52:01.130Z,10.66
2023-11-03T15:55:05.010Z,10.66
2023-11-03T15:58:09.068Z,10.50
2023-11-03T16:01:12.155Z,10.50
2023-11-03T16:04:16.181Z,10.38
2023-11-03T16:07:18.979Z,10.36
2023-11-03T16:10:22.180Z,10.30
2023-11-03T16:13:24.930Z,10.26
2023-11-03T16:16:28.094Z,10.20
